createdAt,value
2022-11-03T00:01:41.122Z,97851.03
2022-11-03T00:06:49.332Z,97848.91
2022-11-03T00:11:53.125Z,97838.81
2022-11-03T00:16:56.717Z,97843.00
2022-11-03T00:22:01.409Z,97840.41
2022-11-03T00:27:04.775Z,97838.56
2022-11-03T00:32:08.115Z,97830.72
2022-11-03T00:37:12.720Z,97823.81
2022-11-03T00:42:16.115Z,97818.03
2022-11-03T00:47:23.250Z,97819.16
2022-11-03T00:52:29.097Z,97814.41
2022-11-03T00:57:32.519Z,97804.59
2022-11-03T01:02:35.897Z,97811.91
2022-11-03T01:07:40.986Z,97795.22
2022-11-03T01:12:44.377Z,97785.22
2022-11-03T01:17:47.737Z,97786.69
2022-11-03T01:22:52.520Z,97770.97
2022-11-03T01:27:55.830Z,97775.91
2022-11-03T01:32:59.206Z,97748.25
2022-11-03T01:38:03.834Z,97759.38
2022-11-03T01:43:17.365Z,97756.06
2022-11-03T01:48:22.560Z,97749.88
2022-11-03T01:53:29.523Z,97731.25
2022-11-03T01:58:37.568Z,97741.72
2022-11-03T02:03:46.189Z,97735.84
2022-11-03T02:08:55.604Z,97734.81
2022-11-03T02:13:58.901Z,97727.94
2022-11-03T02:19:03.773Z,97737.13
2022-11-03T02:24:16.964Z,97719.53
2022-11-03T02:29:21.712Z,97704.47
2022-11-03T02:34:32.455Z,97695.47
2022-11-03T02:39:39.724Z,97693.19
2022-11-03T02:44:45.664Z,97680.06
2022-11-03T02:49:50.753Z,97667.06
2022-11-03T02:54:56.349Z,97654.34
2022-11-03T03:00:05.632Z,97633.97
2022-11-03T03:05:11.547Z,97625.25
2022-11-03T03:10:18.985Z,97611.69
2022-11-03T03:15:29.306Z,97617.72
2022-11-03T03:20:37.299Z,97614.47
2022-11-03T03:25:44.618Z,97604.41
2022-11-03T03:30:51.638Z,97597.16
2022-11-03T03:35:56.780Z,97602.00
2022-11-03T03:41:03.468Z,97588.56
2022-11-03T03:46:14.853Z,97583.66
2022-11-03T03:51:23.401Z,97578.09
2022-11-03T03:56:32.811Z,97581.53
2022-11-03T04:01:37.608Z,97570.72
2022-11-03T04:06:41.217Z,97575.94
2022-11-03T04:12:02.009Z,97568.19
2022-11-03T04:17:33.646Z,97562.78
2022-11-03T04:22:37.021Z,97568.66
2022-11-03T04:27:42.043Z,97562.88
2022-11-03T04:32:49.283Z,97553.78
2022-11-03T04:37:56.255Z,97550.75
2022-11-03T04:42:59.636Z,97558.50
2022-11-03T04:48:14.659Z,97549.84
2022-11-03T04:53:19.899Z,97544.00
2022-11-03T04:58:27.643Z,97535.38
2022-11-03T05:03:35.667Z,97527.97
2022-11-03T05:08:39.370Z,97521.06
2022-11-03T05:13:42.625Z,97520.53
2022-11-03T05:18:50.892Z,97508.63
2022-11-03T05:23:58.056Z,97491.28
2022-11-03T05:29:04.378Z,97488.00
2022-11-03T05:34:26.628Z,97469.63
2022-11-03T05:39:32.178Z,97463.13
2022-11-03T05:44:38.397Z,97457.38
2022-11-03T05:49:44.776Z,97465.28
2022-11-03T05:54:48.580Z,97459.91
2022-11-03T05:59:54.004Z,97467.63
2022-11-03T06:04:59.386Z,97458.66
2022-11-03T06:10:02.841Z,97458.44
2022-11-03T06:15:14.589Z,97449.09
2022-11-03T06:20:23.274Z,97452.16
2022-11-03T06:25:31.565Z,97452.59
2022-11-03T06:30:37.048Z,97453.44
2022-11-03T06:35:42.018Z,97437.84
2022-11-03T06:40:46.076Z,97442.31
2022-11-03T06:45:55.002Z,97439.44
2022-11-03T06:51:00.453Z,97435.22
2022-11-03T06:56:03.902Z,97435.13
2022-11-03T07:01:15.422Z,97427.25
2022-11-03T07:06:27.295Z,97419.31
2022-11-03T07:11:33.011Z,97419.09
2022-11-03T07:16:39.037Z,97404.66
2022-11-03T07:21:47.305Z,97405.34
2022-11-03T07:26:55.122Z,97391.41
2022-11-03T07:31:59.954Z,97401.53
2022-11-03T07:37:04.683Z,97383.63
2022-11-03T07:42:16.516Z,97373.19
2022-11-03T07:47:21.640Z,97370.28
2022-11-03T07:52:28.301Z,97358.31
2022-11-03T07:57:33.117Z,97351.81
2022-11-03T08:02:40.896Z,97348.34
2022-11-03T08:07:45.805Z,97338.72
2022-11-03T08:12:49.193Z,97342.75
2022-11-03T08:17:56.153Z,97325.13
2022-11-03T08:28:24.729Z,97314.16
2022-11-03T08:38:34.151Z,97287.00
2022-11-03T08:43:37.631Z,97279.03
2022-11-03T08:48:41.548Z,97275.91
2022-11-03T08:53:50.589Z,97275.75
2022-11-03T08:58:54.182Z,97262.41
2022-11-03T09:03:57.692Z,97257.44
2022-11-03T09:14:25.938Z,97250.13
2022-11-03T09:19:29.391Z,97246.88
2022-11-03T09:24:36.752Z,97241.16
2022-11-03T09:30:06.689Z,97243.22
2022-11-03T09:35:03.459Z,97236.00
2022-11-03T09:40:10.352Z,97234.47
2022-11-03T09:45:13.928Z,97231.53
2022-11-03T09:50:19.305Z,97224.66
2022-11-03T09:55:26.623Z,97226.69
2022-11-03T10:00:30.366Z,97209.22
2022-11-03T10:05:34.980Z,97209.69
2022-11-03T10:10:41.529Z,97192.03
2022-11-03T10:15:44.945Z,97179.03
2022-11-03T10:20:48.354Z,97182.06
2022-11-03T10:25:53.126Z,97164.25
2022-11-03T10:31:10.704Z,97156.16
2022-11-03T10:36:26.331Z,97143.78
2022-11-03T10:41:33.013Z,97134.84
2022-11-03T10:46:50.335Z,97129.53
2022-11-03T10:51:55.881Z,97131.41
2022-11-03T10:57:02.153Z,97131.53
2022-11-03T11:02:17.198Z,97123.00
2022-11-03T11:07:25.070Z,97101.97
2022-11-03T11:12:29.887Z,97097.84
2022-11-03T11:17:48.011Z,97104.19
2022-11-03T11:22:52.108Z,97088.84
2022-11-03T11:27:59.844Z,97076.03
2022-11-03T11:33:15.197Z,97075.00
2022-11-03T11:39:07.722Z,97059.72
2022-11-03T11:44:57.587Z,97027.00
2022-11-03T11:50:29.599Z,97016.78
2022-11-03T11:55:39.078Z,97006.13
2022-11-03T12:00:55.101Z,96997.63
2022-11-03T12:05:58.604Z,96975.44
2022-11-03T12:11:03.699Z,96964.47
2022-11-03T12:16:08.788Z,96940.63
2022-11-03T12:21:14.476Z,96923.66
2022-11-03T12:26:19.543Z,96906.97
2022-11-03T12:31:24.436Z,96894.50
2022-11-03T12:36:28.090Z,96889.13
2022-11-03T12:41:31.530Z,96884.81
2022-11-03T12:46:36.338Z,96870.38
2022-11-03T12:51:39.869Z,96852.75
2022-11-03T12:56:43.244Z,96843.44
2022-11-03T13:01:48.213Z,96830.94
2022-11-03T13:06:51.799Z,96831.78
2022-11-03T13:12:12.416Z,96822.22
2022-11-03T13:17:17.230Z,96819.41
2022-11-03T13:22:20.902Z,96796.03
2022-11-03T13:27:24.421Z,96798.25
2022-11-03T13:32:29.225Z,96795.28
2022-11-03T13:37:32.710Z,96784.03
2022-11-03T13:42:36.174Z,96778.03
2022-11-03T14:09:16.459Z,96753.72
2022-11-03T14:14:19.955Z,96752.22
2022-11-03T14:19:33.359Z,96747.00
2022-11-03T14:24:40.225Z,96743.38
2022-11-03T14:29:44.379Z,96734.75
2022-11-03T14:34:49.524Z,96726.78
2022-11-03T14:39:53.360Z,96726.03
2022-11-03T14:44:57.061Z,96727.28
2022-11-03T14:50:02.173Z,96712.50
2022-11-03T14:55:07.549Z,96701.16
2022-11-03T15:00:12.437Z,96700.69
2022-11-03T15:05:31.632Z,96689.47
2022-11-03T15:10:34.997Z,96679.91
2022-11-03T15:15:41.276Z,96670.44
2022-11-03T15:20:46.079Z,96648.16
2022-11-03T15:25:49.633Z,96638.28
2022-11-03T15:30:53.078Z,96630.13
2022-11-03T15:35:57.939Z,96636.44
2022-11-03T15:46:30.603Z,96607.97
2022-11-03T15:51:34.045Z,96610.66
2022-11-03T15:56:37.516Z,96591.94
2022-11-03T16:01:42.665Z,96574.41
2022-11-03T16:07:06.674Z,96575.28
2022-11-03T16:12:09.864Z,96550.34
2022-11-03T16:17:14.886Z,96536.94
2022-11-03T16:22:18.303Z,96526.25
2022-11-03T16:27:21.683Z,96530.25
2022-11-03T16:32:26.489Z,96524.44
2022-11-03T16:37:29.968Z,96515.34
2022-11-03T16:42:38.347Z,96499.28
2022-11-03T16:47:43.523Z,96495.97
2022-11-03T16:52:48.580Z,96483.81
2022-11-03T16:57:51.997Z,96477.72
2022-11-03T17:02:56.859Z,96465.41
2022-11-03T17:08:00.608Z,96452.03
2022-11-03T17:13:07.682Z,96457.44
2022-11-03T17:18:14.997Z,96450.13
2022-11-03T17:23:19.221Z,96431.31
2022-11-03T17:28:22.767Z,96419.69
2022-11-03T17:33:27.833Z,96415.06
2022-11-03T17:38:31.354Z,96398.28
2022-11-03T17:43:38.067Z,96397.66
2022-11-03T17:48:42.840Z,96388.09
2022-11-03T17:53:46.695Z,96378.91
2022-11-03T17:58:51.281Z,96371.84
2022-11-03T18:03:56.533Z,96365.75
2022-11-03T18:09:00.397Z,96356.78
2022-11-03T18:14:04.974Z,96356.78
2022-11-03T18:19:13.619Z,96343.03
2022-11-03T18:24:18.578Z,96341.03
2022-11-03T18:29:22.244Z,96333.75
2022-11-03T18:34:28.198Z,96312.84
2022-11-03T18:39:32.218Z,96322.78
2022-11-03T18:44:36.398Z,96320.13
2022-11-03T18:49:41.514Z,96301.91
2022-11-03T18:54:47.428Z,96305.56
2022-11-03T18:59:51.097Z,96287.66
2022-11-03T19:04:56.177Z,96261.44
2022-11-03T19:10:01.295Z,96249.16
2022-11-03T19:15:06.002Z,96232.72
2022-11-03T19:20:14.611Z,96234.06
2022-11-03T19:25:18.979Z,96221.59
2022-11-03T19:30:23.121Z,96206.03
2022-11-03T19:35:32.576Z,96194.56
2022-11-03T19:40:35.968Z,96190.75
2022-11-03T19:45:40.276Z,96187.94
2022-11-03T19:50:45.603Z,96172.69
2022-11-03T19:55:49.895Z,96182.13
2022-11-03T20:00:54.758Z,96173.53
2022-11-03T20:05:59.844Z,96184.28
2022-11-03T20:11:03.639Z,96178.81
2022-11-03T20:16:13.418Z,96196.53
2022-11-03T20:21:22.417Z,96195.69
2022-11-03T20:26:27.236Z,96205.50
2022-11-03T20:31:31.009Z,96200.16
2022-11-03T20:36:36.375Z,96219.22
2022-11-03T20:41:43.278Z,96211.09
2022-11-03T20:46:47.092Z,96216.09
2022-11-03T20:51:52.310Z,96210.19
2022-11-03T20:56:57.742Z,96210.66
2022-11-03T21:02:01.779Z,96208.19
2022-11-03T21:07:06.794Z,96199.88
2022-11-03T21:12:14.542Z,96202.53
2022-11-03T21:17:38.473Z,96194.75
2022-11-03T21:22:53.410Z,96199.41
2022-11-03T21:27:58.073Z,96202.38
2022-11-03T21:33:01.398Z,96210.16
2022-11-03T21:38:06.814Z,96213.81
2022-11-03T21:43:28.869Z,96225.28
2022-11-03T21:48:50.045Z,96226.44
2022-11-03T21:53:55.005Z,96219.97
2022-11-03T21:58:59.016Z,96200.53
2022-11-03T22:04:02.728Z,96187.78
2022-11-03T22:09:07.762Z,96166.72
2022-11-03T22:14:13.025Z,96175.00
2022-11-03T22:19:35.529Z,96160.03
2022-11-03T22:24:58.626Z,96153.75
2022-11-03T22:30:19.953Z,96153.25
2022-11-03T22:35:42.803Z,96145.94
2022-11-03T22:41:11.796Z,96132.84
2022-11-03T22:46:17.329Z,96133.00
2022-11-03T22:51:20.909Z,96125.75
2022-11-03T22:56:27.423Z,96125.41
2022-11-03T23:01:31.362Z,96118.09
2022-11-03T23:06:36.998Z,96126.03
2022-11-03T23:11:42.042Z,96135.44
2022-11-03T23:16:46.309Z,96136.72
2022-11-03T23:21:51.730Z,96132.41
2022-11-03T23:26:56.514Z,96121.41
2022-11-03T23:32:00.559Z,96116.84
2022-11-03T23:37:04.498Z,96112.56
2022-11-03T23:42:09.382Z,96109.75
2022-11-03T23:47:30.470Z,96098.94
2022-11-03T23:52:33.860Z,96103.44
2022-11-03T23:57:56.087Z,96107.28
